sensor_id;sensor_type;location;lat;lon;timestamp;pressure;altitude;pressure_sealevel;temperature;humidity
16355;BME280;8287;51.644;8.494;2023-07-29T00:01:20;99579.47;;;22.68;84.43
16355;BME280;8287;51.644;8.494;2023-07-29T00:03:47;99580.03;;;22.52;85.29
16355;BME280;8287;51.644;8.494;2023-07-29T00:06:13;99581.91;;;22.59;85.16
16355;BME280;8287;51.644;8.494;2023-07-29T00:08:40;99568.69;;;22.68;84.92
16355;BME280;8287;51.644;8.494;2023-07-29T00:11:07;99562.13;;;22.65;85.02
16355;BME280;8287;51.644;8.494;2023-07-29T00:13:35;99566.28;;;22.73;85.03
16355;BME280;8287;51.644;8.494;2023-07-29T00:16:01;99562.03;;;22.76;84.48
16355;BME280;8287;51.644;8.494;2023-07-29T00:18:28;99556.22;;;22.77;84.43
16355;BME280;8287;51.644;8.494;2023-07-29T00:20:55;99553.88;;;22.79;84.47
16355;BME280;8287;51.644;8.494;2023-07-29T00:23:22;99555.38;;;22.84;84.30
16355;BME280;8287;51.644;8.494;2023-07-29T00:25:49;99553.88;;;22.79;84.54
16355;BME280;8287;51.644;8.494;2023-07-29T00:28:16;99554.59;;;22.83;84.20
16355;BME280;8287;51.644;8.494;2023-07-29T00:30:44;99553.50;;;22.81;84.24
16355;BME280;8287;51.644;8.494;2023-07-29T00:33:11;99556.88;;;22.88;84.22
16355;BME280;8287;51.644;8.494;2023-07-29T00:35:38;99553.03;;;22.86;84.12
16355;BME280;8287;51.644;8.494;2023-07-29T00:38:04;99553.44;;;22.84;84.91
16355;BME280;8287;51.644;8.494;2023-07-29T00:40:35;99544.53;;;22.87;84.55
16355;BME280;8287;51.644;8.494;2023-07-29T00:43:02;99552.28;;;22.85;84.69
16355;BME280;8287;51.644;8.494;2023-07-29T00:45:29;99545.44;;;22.77;84.04
16355;BME280;8287;51.644;8.494;2023-07-29T00:47:59;99553.25;;;22.68;85.46
16355;BME280;8287;51.644;8.494;2023-07-29T00:50:27;99550.81;;;22.77;85.65
16355;BME280;8287;51.644;8.494;2023-07-29T00:52:54;99557.69;;;22.85;85.10
16355;BME280;8287;51.644;8.494;2023-07-29T00:55:21;99559.56;;;22.88;84.70
16355;BME280;8287;51.644;8.494;2023-07-29T00:57:48;99553.06;;;22.82;85.69
16355;BME280;8287;51.644;8.494;2023-07-29T01:00:17;99555.41;;;22.80;85.96
16355;BME280;8287;51.644;8.494;2023-07-29T01:02:43;99552.03;;;22.73;86.61
16355;BME280;8287;51.644;8.494;2023-07-29T01:05:14;99552.00;;;22.76;86.40
16355;BME280;8287;51.644;8.494;2023-07-29T01:07:47;99553.53;;;22.77;86.58
16355;BME280;8287;51.644;8.494;2023-07-29T01:10:21;99547.00;;;22.75;86.42
16355;BME280;8287;51.644;8.494;2023-07-29T01:12:58;99541.22;;;22.73;87.23
16355;BME280;8287;51.644;8.494;2023-07-29T01:15:31;99538.53;;;22.73;86.83
16355;BME280;8287;51.644;8.494;2023-07-29T01:18:04;99546.13;;;22.81;87.01
16355;BME280;8287;51.644;8.494;2023-07-29T01:20:35;99538.00;;;22.85;87.24
16355;BME280;8287;51.644;8.494;2023-07-29T01:23:03;99534.63;;;22.77;87.75
16355;BME280;8287;51.644;8.494;2023-07-29T01:25:31;99531.53;;;22.75;87.86
16355;BME280;8287;51.644;8.494;2023-07-29T01:27:58;99525.03;;;22.73;88.46
16355;BME280;8287;51.644;8.494;2023-07-29T01:30:28;99520.84;;;22.68;88.01
16355;BME280;8287;51.644;8.494;2023-07-29T01:33:01;99510.03;;;22.68;88.56
16355;BME280;8287;51.644;8.494;2023-07-29T01:35:33;99525.06;;;22.69;88.22
16355;BME280;8287;51.644;8.494;2023-07-29T01:38:05;99520.84;;;22.68;87.80
16355;BME280;8287;51.644;8.494;2023-07-29T01:40:33;99512.34;;;22.66;87.70
16355;BME280;8287;51.644;8.494;2023-07-29T01:43:01;99515.00;;;22.70;87.28
16355;BME280;8287;51.644;8.494;2023-07-29T01:45:28;99514.69;;;22.64;87.30
16355;BME280;8287;51.644;8.494;2023-07-29T01:47:57;99513.53;;;22.65;87.55
16355;BME280;8287;51.644;8.494;2023-07-29T01:50:23;99512.00;;;22.64;87.50
16355;BME280;8287;51.644;8.494;2023-07-29T01:52:50;99518.94;;;22.65;87.27
16355;BME280;8287;51.644;8.494;2023-07-29T01:55:17;99511.94;;;22.68;86.44
16355;BME280;8287;51.644;8.494;2023-07-29T01:57:45;99513.91;;;22.67;86.41
16355;BME280;8287;51.644;8.494;2023-07-29T02:00:12;99515.00;;;22.70;86.43
16355;BME280;8287;51.644;8.494;2023-07-29T02:02:38;99518.50;;;22.70;86.42
16355;BME280;8287;51.644;8.494;2023-07-29T02:05:05;99522.41;;;22.66;87.04
16355;BME280;8287;51.644;8.494;2023-07-29T02:07:32;99525.28;;;22.48;88.08
16355;BME280;8287;51.644;8.494;2023-07-29T02:09:59;99517.00;;;21.85;91.55
16355;BME280;8287;51.644;8.494;2023-07-29T02:12:26;99513.00;;;21.52;96.67
16355;BME280;8287;51.644;8.494;2023-07-29T02:14:54;99509.28;;;21.87;95.63
16355;BME280;8287;51.644;8.494;2023-07-29T02:17:20;99508.41;;;22.00;94.15
16355;BME280;8287;51.644;8.494;2023-07-29T02:19:47;99510.53;;;22.19;92.03
16355;BME280;8287;51.644;8.494;2023-07-29T02:22:15;99507.34;;;22.28;91.23
16355;BME280;8287;51.644;8.494;2023-07-29T02:24:42;99502.72;;;22.28;90.87
16355;BME280;8287;51.644;8.494;2023-07-29T02:27:09;99502.78;;;22.21;91.97
16355;BME280;8287;51.644;8.494;2023-07-29T02:29:36;99496.69;;;22.17;92.67
16355;BME280;8287;51.644;8.494;2023-07-29T02:32:04;99497.91;;;22.09;93.49
16355;BME280;8287;51.644;8.494;2023-07-29T02:34:31;99495.19;;;22.13;93.10
16355;BME280;8287;51.644;8.494;2023-07-29T02:36:57;99494.44;;;22.09;93.17
16355;BME280;8287;51.644;8.494;2023-07-29T02:39:24;99495.00;;;21.90;94.71
16355;BME280;8287;51.644;8.494;2023-07-29T02:41:51;99489.19;;;21.91;95.38
16355;BME280;8287;51.644;8.494;2023-07-29T02:44:18;99487.22;;;21.99;94.99
16355;BME280;8287;51.644;8.494;2023-07-29T02:46:45;99499.13;;;22.05;93.90
16355;BME280;8287;51.644;8.494;2023-07-29T02:49:13;99496.75;;;22.10;93.03
16355;BME280;8287;51.644;8.494;2023-07-29T02:51:39;99492.53;;;22.09;92.87
16355;BME280;8287;51.644;8.494;2023-07-29T02:54:06;99495.94;;;22.13;92.91
16355;BME280;8287;51.644;8.494;2023-07-29T02:56:33;99498.56;;;22.20;91.91
16355;BME280;8287;51.644;8.494;2023-07-29T02:58:59;99497.78;;;22.20;91.39
16355;BME280;8287;51.644;8.494;2023-07-29T03:01:26;99486.25;;;22.19;91.40
16355;BME280;8287;51.644;8.494;2023-07-29T03:03:53;99491.34;;;22.10;92.36
16355;BME280;8287;51.644;8.494;2023-07-29T03:06:21;99478.25;;;22.09;92.16
16355;BME280;8287;51.644;8.494;2023-07-29T03:08:48;99485.66;;;22.01;93.44
16355;BME280;8287;51.644;8.494;2023-07-29T03:11:15;99479.81;;;22.06;93.03
16355;BME280;8287;51.644;8.494;2023-07-29T03:13:42;99481.34;;;22.07;93.08
16355;BME280;8287;51.644;8.494;2023-07-29T03:16:10;99479.78;;;22.10;92.52
16355;BME280;8287;51.644;8.494;2023-07-29T03:18:38;99475.59;;;22.05;93.00
16355;BME280;8287;51.644;8.494;2023-07-29T03:21:05;99479.75;;;22.13;92.90
16355;BME280;8287;51.644;8.494;2023-07-29T03:23:33;99470.41;;;22.21;91.35
16355;BME280;8287;51.644;8.494;2023-07-29T03:26:02;99462.59;;;22.30;90.89
16355;BME280;8287;51.644;8.494;2023-07-29T03:28:36;99466.91;;;22.24;91.38
16355;BME280;8287;51.644;8.494;2023-07-29T03:31:02;99463.47;;;22.20;92.62
16355;BME280;8287;51.644;8.494;2023-07-29T03:33:29;99475.44;;;22.19;93.45
16355;BME280;8287;51.644;8.494;2023-07-29T03:35:56;99474.03;;;22.08;94.71
16355;BME280;8287;51.644;8.494;2023-07-29T03:38:22;99461.28;;;22.08;94.12
16355;BME280;8287;51.644;8.494;2023-07-29T03:40:50;99459.78;;;22.04;95.03
16355;BME280;8287;51.644;8.494;2023-07-29T03:43:18;99464.81;;;22.02;95.47
16355;BME280;8287;51.644;8.494;2023-07-29T03:45:45;99454.50;;;21.93;96.51
16355;BME280;8287;51.644;8.494;2023-07-29T03:48:12;99449.25;;;21.79;97.74
16355;BME280;8287;51.644;8.494;2023-07-29T03:50:38;99448.44;;;21.82;98.20
16355;BME280;8287;51.644;8.494;2023-07-29T03:53:05;99444.63;;;21.80;97.79
16355;BME280;8287;51.644;8.494;2023-07-29T03:55:32;99449.22;;;21.83;97.64
16355;BME280;8287;51.644;8.494;2023-07-29T03:58:00;99448.03;;;21.84;97.22
16355;BME280;8287;51.644;8.494;2023-07-29T04:00:26;99437.22;;;21.87;96.97
16355;BME280;8287;51.644;8.494;2023-07-29T04:02:53;99446.41;;;21.93;96.08
16355;BME280;8287;51.644;8.494;2023-07-29T04:05:19;99449.09;;;21.97;95.85
16355;BME280;8287;51.644;8.494;2023-07-29T04:07:46;99454.88;;;21.95;96.11
16355;BME280;8287;51.644;8.494;2023-07-29T04:10:13;99442.66;;;21.84;96.99
16355;BME280;8287;51.644;8.494;2023-07-29T04:12:39;99451.94;;;21.79;97.46
16355;BME280;8287;51.644;8.494;2023-07-29T04:15:08;99450.81;;;21.77;97.51
16355;BME280;8287;51.644;8.494;2023-07-29T04:17:35;99453.09;;;21.78;96.90
16355;BME280;8287;51.644;8.494;2023-07-29T04:20:02;99450.81;;;21.77;97.37
16355;BME280;8287;51.644;8.494;2023-07-29T04:22:29;99441.28;;;21.65;97.78
16355;BME280;8287;51.644;8.494;2023-07-29T04:24:55;99445.88;;;21.68;97.68
16355;BME280;8287;51.644;8.494;2023-07-29T04:27:22;99446.59;;;21.72;96.78
16355;BME280;8287;51.644;8.494;2023-07-29T04:29:48;99447.34;;;21.76;96.55
16355;BME280;8287;51.644;8.494;2023-07-29T04:32:16;99446.25;;;21.70;97.23
16355;BME280;8287;51.644;8.494;2023-07-29T04:34:43;99448.59;;;21.68;97.66
16355;BME280;8287;51.644;8.494;2023-07-29T04:37:10;99432.72;;;21.74;96.89
16355;BME280;8287;51.644;8.494;2023-07-29T04:39:36;99437.38;;;21.70;97.37
16355;BME280;8287;51.644;8.494;2023-07-29T04:42:03;99430.47;;;21.65;98.23
16355;BME280;8287;51.644;8.494;2023-07-29T04:44:30;99435.81;;;21.72;97.41
16355;BME280;8287;51.644;8.494;2023-07-29T04:46:57;99440.78;;;21.77;96.97
16355;BME280;8287;51.644;8.494;2023-07-29T04:49:25;99434.25;;;21.75;97.25
16355;BME280;8287;51.644;8.494;2023-07-29T04:51:51;99438.97;;;21.67;98.32
16355;BME280;8287;51.644;8.494;2023-07-29T04:54:18;99440.50;;;21.68;98.27
16355;BME280;8287;51.644;8.494;2023-07-29T04:56:45;99449.31;;;21.72;97.05
16355;BME280;8287;51.644;8.494;2023-07-29T04:59:12;99443.47;;;21.81;96.21
16355;BME280;8287;51.644;8.494;2023-07-29T05:01:39;99449.25;;;21.79;96.96
16355;BME280;8287;51.644;8.494;2023-07-29T05:04:07;99443.91;;;21.72;98.11
16355;BME280;8287;51.644;8.494;2023-07-29T05:06:35;99441.66;;;21.67;99.10
16355;BME280;8287;51.644;8.494;2023-07-29T05:09:12;99437.78;;;21.68;99.10
16355;BME280;8287;51.644;8.494;2023-07-29T05:11:39;99437.69;;;21.79;97.84
16355;BME280;8287;51.644;8.494;2023-07-29T05:14:06;99441.16;;;21.79;97.26
16355;BME280;8287;51.644;8.494;2023-07-29T05:16:34;99446.22;;;21.74;98.24
16355;BME280;8287;51.644;8.494;2023-07-29T05:19:00;99435.44;;;21.74;97.83
16355;BME280;8287;51.644;8.494;2023-07-29T05:21:27;99438.47;;;21.79;97.52
16355;BME280;8287;51.644;8.494;2023-07-29T05:23:55;99429.97;;;21.81;96.72
16355;BME280;8287;51.644;8.494;2023-07-29T05:26:22;99430.69;;;21.85;96.47
16355;BME280;8287;51.644;8.494;2023-07-29T05:28:48;99432.63;;;21.84;97.00
16355;BME280;8287;51.644;8.494;2023-07-29T05:31:15;99425.31;;;21.81;97.72
16355;BME280;8287;51.644;8.494;2023-07-29T05:33:41;99418.00;;;21.82;97.67
16355;BME280;8287;51.644;8.494;2023-07-29T05:36:08;99431.50;;;21.82;97.89
16355;BME280;8287;51.644;8.494;2023-07-29T05:38:35;99418.06;;;21.75;98.76
16355;BME280;8287;51.644;8.494;2023-07-29T05:41:03;99423.72;;;21.87;97.90
16355;BME280;8287;51.644;8.494;2023-07-29T05:43:29;99437.66;;;21.82;98.76
16355;BME280;8287;51.644;8.494;2023-07-29T05:45:56;99438.00;;;21.88;99.00
16355;BME280;8287;51.644;8.494;2023-07-29T05:48:23;99440.28;;;21.89;98.36
16355;BME280;8287;51.644;8.494;2023-07-29T05:50:49;99444.91;;;21.92;98.10
16355;BME280;8287;51.644;8.494;2023-07-29T05:53:16;99447.16;;;21.94;98.81
16355;BME280;8287;51.644;8.494;2023-07-29T05:55:43;99449.84;;;21.97;98.71
16355;BME280;8287;51.644;8.494;2023-07-29T05:58:11;99444.44;;;21.97;98.80
16355;BME280;8287;51.644;8.494;2023-07-29T06:00:37;99454.00;;;22.05;98.06
16355;BME280;8287;51.644;8.494;2023-07-29T06:03:04;99452.78;;;22.10;97.84
16355;BME280;8287;51.644;8.494;2023-07-29T06:05:30;99456.28;;;22.10;98.75
16355;BME280;8287;51.644;8.494;2023-07-29T06:07:57;99461.69;;;22.07;99.05
16355;BME280;8287;51.644;8.494;2023-07-29T06:10:24;99455.53;;;22.06;99.46
16355;BME280;8287;51.644;8.494;2023-07-29T06:12:50;99454.78;;;22.06;99.28
16355;BME280;8287;51.644;8.494;2023-07-29T06:15:18;99461.22;;;22.15;98.02
16355;BME280;8287;51.644;8.494;2023-07-29T06:17:47;99453.13;;;22.15;98.15
16355;BME280;8287;51.644;8.494;2023-07-29T06:20:14;99455.81;;;22.15;97.84
16355;BME280;8287;51.644;8.494;2023-07-29T06:22:41;99449.63;;;22.18;97.56
16355;BME280;8287;51.644;8.494;2023-07-29T06:25:08;99458.91;;;22.17;98.07
16355;BME280;8287;51.644;8.494;2023-07-29T06:27:34;99466.56;;;22.19;98.27
16355;BME280;8287;51.644;8.494;2023-07-29T06:30:01;99471.19;;;22.22;98.57
16355;BME280;8287;51.644;8.494;2023-07-29T06:32:29;99460.44;;;22.18;99.29
16355;BME280;8287;51.644;8.494;2023-07-29T06:34:56;99463.13;;;22.18;99.57
16355;BME280;8287;51.644;8.494;2023-07-29T06:37:22;99465.75;;;22.25;99.72
16355;BME280;8287;51.644;8.494;2023-07-29T06:39:49;99462.66;;;22.23;99.72
16355;BME280;8287;51.644;8.494;2023-07-29T06:42:15;99454.13;;;22.28;99.70
16355;BME280;8287;51.644;8.494;2023-07-29T06:44:42;99459.03;;;22.37;98.87
16355;BME280;8287;51.644;8.494;2023-07-29T06:47:11;99462.59;;;22.30;98.53
16355;BME280;8287;51.644;8.494;2023-07-29T06:49:39;99462.13;;;22.39;98.67
16355;BME280;8287;51.644;8.494;2023-07-29T06:52:06;99465.97;;;22.41;98.42
16355;BME280;8287;51.644;8.494;2023-07-29T06:54:32;99470.53;;;22.48;97.96
16355;BME280;8287;51.644;8.494;2023-07-29T06:56:59;99477.81;;;22.51;97.53
16355;BME280;8287;51.644;8.494;2023-07-29T06:59:26;99488.16;;;22.59;97.01
16355;BME280;8287;51.644;8.494;2023-07-29T07:01:52;99491.91;;;22.65;95.67
16355;BME280;8287;51.644;8.494;2023-07-29T07:04:19;99494.63;;;22.65;95.19
16355;BME280;8287;51.644;8.494;2023-07-29T07:06:47;99507.75;;;22.63;95.88
16355;BME280;8287;51.644;8.494;2023-07-29T07:09:13;99513.09;;;22.70;94.64
16355;BME280;8287;51.644;8.494;2023-07-29T07:11:40;99508.50;;;22.67;94.52
16355;BME280;8287;51.644;8.494;2023-07-29T07:14:07;99511.56;;;22.69;94.44
16355;BME280;8287;51.644;8.494;2023-07-29T07:16:33;99514.66;;;22.68;93.95
16355;BME280;8287;51.644;8.494;2023-07-29T07:19:02;99506.16;;;22.69;92.92
16355;BME280;8287;51.644;8.494;2023-07-29T07:21:28;99508.53;;;22.64;92.57
16355;BME280;8287;51.644;8.494;2023-07-29T07:23:56;99512.78;;;22.65;92.34
16355;BME280;8287;51.644;8.494;2023-07-29T07:26:23;99518.59;;;22.60;92.72
16355;BME280;8287;51.644;8.494;2023-07-29T07:28:50;99521.03;;;22.51;93.17
16355;BME280;8287;51.644;8.494;2023-07-29T07:31:17;99531.03;;;22.50;92.86
16355;BME280;8287;51.644;8.494;2023-07-29T07:33:44;99535.72;;;22.46;93.28
16355;BME280;8287;51.644;8.494;2023-07-29T07:36:11;99528.88;;;22.35;93.33
16355;BME280;8287;51.644;8.494;2023-07-29T07:38:38;99530.75;;;22.41;93.97
16355;BME280;8287;51.644;8.494;2023-07-29T07:41:06;99521.97;;;22.30;93.63
16355;BME280;8287;51.644;8.494;2023-07-29T07:43:32;99526.25;;;22.28;93.50
16355;BME280;8287;51.644;8.494;2023-07-29T07:46:00;99523.53;;;22.28;94.01
16355;BME280;8287;51.644;8.494;2023-07-29T07:48:27;99527.50;;;22.16;94.08
16355;BME280;8287;51.644;8.494;2023-07-29T07:50:54;99520.97;;;22.17;93.89
16355;BME280;8287;51.644;8.494;2023-07-29T07:53:20;99524.06;;;22.16;94.66
16355;BME280;8287;51.644;8.494;2023-07-29T07:55:47;99536.41;;;22.13;94.57
16355;BME280;8287;51.644;8.494;2023-07-29T07:58:15;99533.66;;;22.20;93.67
16355;BME280;8287;51.644;8.494;2023-07-29T08:00:41;99530.53;;;22.25;93.78
16355;BME280;8287;51.644;8.494;2023-07-29T08:03:08;99537.03;;;22.28;92.78
16355;BME280;8287;51.644;8.494;2023-07-29T08:05:35;99522.06;;;22.23;92.11
16355;BME280;8287;51.644;8.494;2023-07-29T08:08:01;99533.94;;;22.29;91.59
16355;BME280;8287;51.644;8.494;2023-07-29T08:10:28;99533.84;;;22.40;90.66
16355;BME280;8287;51.644;8.494;2023-07-29T08:12:54;99524.22;;;22.42;90.45
16355;BME280;8287;51.644;8.494;2023-07-29T08:15:22;99532.22;;;22.49;89.49
16355;BME280;8287;51.644;8.494;2023-07-29T08:17:49;99532.63;;;22.48;87.89
16355;BME280;8287;51.644;8.494;2023-07-29T08:20:15;99527.94;;;22.52;87.54
16355;BME280;8287;51.644;8.494;2023-07-29T08:22:42;99525.06;;;22.69;86.04
16355;BME280;8287;51.644;8.494;2023-07-29T08:25:09;99520.72;;;22.75;85.05
16355;BME280;8287;51.644;8.494;2023-07-29T08:27:35;99526.50;;;22.77;82.89
16355;BME280;8287;51.644;8.494;2023-07-29T08:30:02;99529.56;;;22.79;82.53
16355;BME280;8287;51.644;8.494;2023-07-29T08:32:30;99540.06;;;22.74;82.00
16355;BME280;8287;51.644;8.494;2023-07-29T08:34:56;99538.22;;;22.67;81.81
16355;BME280;8287;51.644;8.494;2023-07-29T08:37:23;99544.75;;;22.66;82.87
16355;BME280;8287;51.644;8.494;2023-07-29T08:39:49;99547.63;;;22.52;83.00
16355;BME280;8287;51.644;8.494;2023-07-29T08:42:19;99544.94;;;22.52;83.53
16355;BME280;8287;51.644;8.494;2023-07-29T08:44:48;99548.84;;;22.48;82.86
16355;BME280;8287;51.644;8.494;2023-07-29T08:47:15;99537.22;;;22.51;83.46
16355;BME280;8287;51.644;8.494;2023-07-29T08:49:45;99526.34;;;22.58;83.35
16355;BME280;8287;51.644;8.494;2023-07-29T08:52:13;99537.91;;;22.58;82.50
16355;BME280;8287;51.644;8.494;2023-07-29T08:54:40;99537.75;;;22.72;81.35
16355;BME280;8287;51.644;8.494;2023-07-29T08:57:08;99544.69;;;22.73;79.38
16355;BME280;8287;51.644;8.494;2023-07-29T08:59:34;99542.19;;;22.89;77.93
16355;BME280;8287;51.644;8.494;2023-07-29T09:02:01;99550.00;;;22.80;75.32
16355;BME280;8287;51.644;8.494;2023-07-29T09:04:28;99553.53;;;22.77;76.13
16355;BME280;8287;51.644;8.494;2023-07-29T09:06:56;99563.91;;;22.79;76.09
16355;BME280;8287;51.644;8.494;2023-07-29T09:09:24;99554.94;;;22.89;76.03
16355;BME280;8287;51.644;8.494;2023-07-29T09:11:51;99557.50;;;22.99;75.98
16355;BME280;8287;51.644;8.494;2023-07-29T09:14:18;99567.94;;;22.97;73.17
16355;BME280;8287;51.644;8.494;2023-07-29T09:16:45;99565.88;;;23.08;74.86
16355;BME280;8287;51.644;8.494;2023-07-29T09:19:12;99560.13;;;23.06;73.84
16355;BME280;8287;51.644;8.494;2023-07-29T09:21:39;99569.56;;;22.91;72.93
16355;BME280;8287;51.644;8.494;2023-07-29T09:24:08;99570.53;;;23.08;72.50
16355;BME280;8287;51.644;8.494;2023-07-29T09:26:35;99568.13;;;23.17;72.10
16355;BME280;8287;51.644;8.494;2023-07-29T09:29:02;99567.25;;;23.23;72.62
16355;BME280;8287;51.644;8.494;2023-07-29T09:31:29;99570.88;;;23.43;72.72
16355;BME280;8287;51.644;8.494;2023-07-29T09:33:57;99571.16;;;23.49;71.39
16355;BME280;8287;51.644;8.494;2023-07-29T09:36:24;99565.19;;;23.61;69.85
16355;BME280;8287;51.644;8.494;2023-07-29T09:38:52;99564.44;;;23.60;68.89
16355;BME280;8287;51.644;8.494;2023-07-29T09:41:23;99569.84;;;23.60;68.97
16355;BME280;8287;51.644;8.494;2023-07-29T09:43:55;99566.91;;;23.74;68.48
16355;BME280;8287;51.644;8.494;2023-07-29T09:46:23;99566.47;;;23.79;64.72
16355;BME280;8287;51.644;8.494;2023-07-29T09:48:53;99556.19;;;23.94;65.77
16355;BME280;8287;51.644;8.494;2023-07-29T09:51:20;99561.78;;;24.06;63.64
16355;BME280;8287;51.644;8.494;2023-07-29T09:53:47;99565.38;;;24.00;63.17
16355;BME280;8287;51.644;8.494;2023-07-29T09:56:15;99557.44;;;23.89;61.92
16355;BME280;8287;51.644;8.494;2023-07-29T09:58:44;99568.81;;;23.77;62.84
16355;BME280;8287;51.644;8.494;2023-07-29T10:01:12;99556.03;;;23.78;62.04
16355;BME280;8287;51.644;8.494;2023-07-29T10:03:39;99560.13;;;23.89;62.25
16355;BME280;8287;51.644;8.494;2023-07-29T10:06:07;99567.91;;;23.87;61.21
16355;BME280;8287;51.644;8.494;2023-07-29T10:08:34;99549.50;;;24.02;62.32
16355;BME280;8287;51.644;8.494;2023-07-29T10:11:05;99555.06;;;24.14;62.60
16355;BME280;8287;51.644;8.494;2023-07-29T10:13:32;99559.03;;;24.10;61.26
16355;BME280;8287;51.644;8.494;2023-07-29T10:16:01;99565.97;;;24.11;61.22
16355;BME280;8287;51.644;8.494;2023-07-29T10:18:29;99571.22;;;24.21;59.96
16355;BME280;8287;51.644;8.494;2023-07-29T10:20:57;99568.78;;;24.26;59.98
16355;BME280;8287;51.644;8.494;2023-07-29T10:23:25;99561.59;;;24.39;60.50
16355;BME280;8287;51.644;8.494;2023-07-29T10:25:57;99566.75;;;24.53;60.55
16355;BME280;8287;51.644;8.494;2023-07-29T10:28:25;99559.97;;;24.65;60.23
16355;BME280;8287;51.644;8.494;2023-07-29T10:30:53;99560.63;;;24.49;60.03
16355;BME280;8287;51.644;8.494;2023-07-29T10:33:21;99562.00;;;24.61;60.46
16355;BME280;8287;51.644;8.494;2023-07-29T10:35:48;99567.06;;;24.78;58.99
16355;BME280;8287;51.644;8.494;2023-07-29T10:38:15;99563.88;;;24.83;57.90
16355;BME280;8287;51.644;8.494;2023-07-29T10:40:46;99570.34;;;24.89;56.71
16355;BME280;8287;51.644;8.494;2023-07-29T10:43:19;99567.34;;;25.03;58.40
16355;BME280;8287;51.644;8.494;2023-07-29T10:45:50;99561.22;;;25.19;57.49
16355;BME280;8287;51.644;8.494;2023-07-29T10:48:41;99564.91;;;25.28;57.21
16355;BME280;8287;51.644;8.494;2023-07-29T10:51:25;99561.22;;;25.19;57.79
16355;BME280;8287;51.644;8.494;2023-07-29T10:53:55;99564.97;;;25.25;58.21
16355;BME280;8287;51.644;8.494;2023-07-29T10:56:29;99558.66;;;25.12;57.35
16355;BME280;8287;51.644;8.494;2023-07-29T10:58:58;99562.63;;;25.07;56.36
16355;BME280;8287;51.644;8.494;2023-07-29T11:01:27;99557.94;;;25.08;56.45
16355;BME280;8287;51.644;8.494;2023-07-29T11:04:24;99550.16;;;25.10;57.01
16355;BME280;8287;51.644;8.494;2023-07-29T11:07:23;99553.00;;;25.22;57.17
16355;BME280;8287;51.644;8.494;2023-07-29T11:09:58;99549.25;;;25.36;56.94
16355;BME280;8287;51.644;8.494;2023-07-29T11:12:38;99552.63;;;25.40;56.43
16355;BME280;8287;51.644;8.494;2023-07-29T11:15:12;99558.25;;;25.49;56.74
16355;BME280;8287;51.644;8.494;2023-07-29T11:17:41;99549.97;;;25.72;55.99
16355;BME280;8287;51.644;8.494;2023-07-29T11:20:10;99548.94;;;25.82;55.67
16355;BME280;8287;51.644;8.494;2023-07-29T11:22:38;99536.56;;;25.97;53.97
16355;BME280;8287;51.644;8.494;2023-07-29T11:25:05;99544.78;;;26.09;54.75
16355;BME280;8287;51.644;8.494;2023-07-29T11:27:33;99529.91;;;26.30;53.67
16355;BME280;8287;51.644;8.494;2023-07-29T11:30:02;99520.19;;;26.45;54.33
16355;BME280;8287;51.644;8.494;2023-07-29T11:32:30;99527.13;;;26.62;53.44
16355;BME280;8287;51.644;8.494;2023-07-29T11:35:01;99532.44;;;26.65;53.87
16355;BME280;8287;51.644;8.494;2023-07-29T11:37:30;99532.81;;;26.80;53.71
16355;BME280;8287;51.644;8.494;2023-07-29T11:39:56;99533.28;;;26.91;52.54
16355;BME280;8287;51.644;8.494;2023-07-29T11:42:24;99534.91;;;27.01;53.04
16355;BME280;8287;51.644;8.494;2023-07-29T11:44:50;99539.84;;;27.06;52.45
16355;BME280;8287;51.644;8.494;2023-07-29T11:47:17;99540.47;;;27.10;51.34
16355;BME280;8287;51.644;8.494;2023-07-29T11:49:43;99530.03;;;26.96;51.72
16355;BME280;8287;51.644;8.494;2023-07-29T11:52:10;99525.25;;;27.00;52.38
16355;BME280;8287;51.644;8.494;2023-07-29T11:54:39;99524.25;;;27.06;51.64
16355;BME280;8287;51.644;8.494;2023-07-29T11:57:06;99528.06;;;26.96;51.54
16355;BME280;8287;51.644;8.494;2023-07-29T11:59:33;99526.41;;;26.86;52.54
16355;BME280;8287;51.644;8.494;2023-07-29T12:02:00;99530.63;;;26.75;53.20
16355;BME280;8287;51.644;8.494;2023-07-29T12:04:27;99534.63;;;26.70;51.76
16355;BME280;8287;51.644;8.494;2023-07-29T12:06:54;99542.66;;;26.61;52.48
16355;BME280;8287;51.644;8.494;2023-07-29T12:09:22;99542.88;;;26.67;53.86
16355;BME280;8287;51.644;8.494;2023-07-29T12:11:50;99532.56;;;26.62;53.84
16355;BME280;8287;51.644;8.494;2023-07-29T12:14:17;99533.09;;;26.41;53.58
16355;BME280;8287;51.644;8.494;2023-07-29T12:16:44;99534.81;;;26.35;54.58
16355;BME280;8287;51.644;8.494;2023-07-29T12:19:12;99536.09;;;26.30;55.43
16355;BME280;8287;51.644;8.494;2023-07-29T12:21:38;99545.66;;;26.35;55.91
16355;BME280;8287;51.644;8.494;2023-07-29T12:24:06;99538.50;;;26.57;56.97
16355;BME280;8287;51.644;8.494;2023-07-29T12:26:33;99530.25;;;26.60;55.52
16355;BME280;8287;51.644;8.494;2023-07-29T12:29:11;99538.00;;;26.62;55.46
16355;BME280;8287;51.644;8.494;2023-07-29T12:31:38;99528.44;;;26.41;55.99
16355;BME280;8287;51.644;8.494;2023-07-29T12:34:04;99524.94;;;26.57;56.22
16355;BME280;8287;51.644;8.494;2023-07-29T12:36:41;99523.94;;;27.04;54.86
16355;BME280;8287;51.644;8.494;2023-07-29T12:39:15;99521.69;;;27.15;52.86
16355;BME280;8287;51.644;8.494;2023-07-29T12:41:42;99526.06;;;27.25;53.20
16355;BME280;8287;51.644;8.494;2023-07-29T12:44:10;99525.63;;;27.27;53.33
16355;BME280;8287;51.644;8.494;2023-07-29T12:46:37;99519.53;;;27.23;52.55
16355;BME280;8287;51.644;8.494;2023-07-29T12:49:03;99523.41;;;27.09;52.12
16355;BME280;8287;51.644;8.494;2023-07-29T12:51:30;99518.34;;;26.83;51.49
16355;BME280;8287;51.644;8.494;2023-07-29T12:53:56;99519.88;;;26.84;51.87
16355;BME280;8287;51.644;8.494;2023-07-29T12:56:23;99524.53;;;26.71;52.63
16355;BME280;8287;51.644;8.494;2023-07-29T12:58:50;99510.31;;;26.51;52.17
16355;BME280;8287;51.644;8.494;2023-07-29T13:01:18;99515.66;;;26.54;52.86
16355;BME280;8287;51.644;8.494;2023-07-29T13:03:44;99505.25;;;26.65;53.59
16355;BME280;8287;51.644;8.494;2023-07-29T13:06:11;99507.50;;;26.95;52.34
16355;BME280;8287;51.644;8.494;2023-07-29T13:08:38;99513.25;;;26.97;51.73
16355;BME280;8287;51.644;8.494;2023-07-29T13:11:04;99510.53;;;26.97;52.48
16355;BME280;8287;51.644;8.494;2023-07-29T13:13:31;99508.91;;;27.00;53.53